createdAt,value
2018-07-26T00:05:05.520Z,8
2018-07-26T00:15:05.479Z,9
2018-07-26T00:25:05.412Z,9
2018-07-26T00:35:05.556Z,10
2018-07-26T00:45:05.449Z,10
2018-07-26T00:55:05.474Z,10
2018-07-26T01:05:05.509Z,10
2018-07-26T01:15:05.442Z,10
2018-07-26T01:25:05.512Z,9
2018-07-26T01:35:05.486Z,9
2018-07-26T01:45:05.562Z,10
2018-07-26T01:55:05.465Z,8
2018-07-26T02:05:05.424Z,9
2018-07-26T02:15:05.581Z,11
2018-07-26T02:25:05.441Z,9
2018-07-26T02:35:05.502Z,10
2018-07-26T02:45:05.495Z,10
2018-07-26T02:55:05.495Z,12
2018-07-26T03:05:05.552Z,11
2018-07-26T03:15:05.874Z,11
2018-07-26T03:25:05.446Z,12
2018-07-26T03:35:05.530Z,11
2018-07-26T03:45:05.451Z,12
2018-07-26T03:55:05.560Z,12
2018-07-26T04:05:05.517Z,11
2018-07-26T04:15:05.587Z,11
2018-07-26T04:25:05.557Z,11
2018-07-26T04:35:05.533Z,13
2018-07-26T04:45:05.527Z,11
2018-07-26T04:55:05.538Z,11
2018-07-26T05:05:05.453Z,12
2018-07-26T05:15:05.540Z,12
2018-07-26T05:25:05.574Z,12
2018-07-26T05:35:05.559Z,11
2018-07-26T05:45:05.595Z,11
2018-07-26T05:55:05.510Z,12
2018-07-26T06:05:05.563Z,12
2018-07-26T06:15:05.447Z,13
2018-07-26T06:25:05.560Z,13
2018-07-26T06:35:05.511Z,13
2018-07-26T06:45:05.464Z,12
2018-07-26T06:55:05.543Z,12
2018-07-26T07:05:05.561Z,11
2018-07-26T07:15:05.618Z,9
2018-07-26T07:25:05.520Z,8
2018-07-26T07:35:05.567Z,8
2018-07-26T07:45:05.607Z,9
2018-07-26T07:55:05.567Z,7
2018-07-26T08:05:05.575Z,7
2018-07-26T08:15:05.576Z,6
2018-07-26T08:25:05.713Z,5
2018-07-26T08:35:05.738Z,5
2018-07-26T08:45:05.596Z,4
2018-07-26T08:55:05.602Z,4
2018-07-26T09:05:05.599Z,5
2018-07-26T09:15:05.599Z,4
2018-07-26T09:25:05.752Z,3
2018-07-26T09:35:05.567Z,3
2018-07-26T09:45:05.682Z,3
2018-07-26T09:55:05.575Z,3
2018-07-26T10:05:05.702Z,3
2018-07-26T10:15:05.719Z,3
2018-07-26T10:25:05.686Z,2
2018-07-26T10:35:05.631Z,2
2018-07-26T10:45:05.606Z,3
2018-07-26T10:55:05.624Z,3
2018-07-26T11:05:05.608Z,3
2018-07-26T11:15:05.693Z,3
2018-07-26T11:25:05.672Z,3
2018-07-26T11:35:05.621Z,3
2018-07-26T11:45:05.647Z,4
2018-07-26T11:55:05.623Z,3
2018-07-26T12:05:05.759Z,3
2018-07-26T12:15:05.632Z,3
2018-07-26T12:25:05.689Z,4
2018-07-26T12:35:05.635Z,3
2018-07-26T12:45:05.592Z,3
2018-07-26T12:55:05.661Z,3
2018-07-26T13:05:05.721Z,2
2018-07-26T13:15:05.680Z,3
2018-07-26T13:25:05.597Z,3
2018-07-26T13:35:05.606Z,2
2018-07-26T13:45:05.699Z,2
2018-07-26T13:55:05.574Z,3
2018-07-26T14:05:05.697Z,3
2018-07-26T14:15:05.667Z,3
2018-07-26T14:25:05.730Z,3
2018-07-26T14:35:05.628Z,3
2018-07-26T14:45:05.616Z,2
2018-07-26T14:55:05.744Z,3
2018-07-26T15:05:06.587Z,3
2018-07-26T15:15:05.951Z,3
2018-07-26T15:25:06.679Z,3
2018-07-26T15:35:06.312Z,2
2018-07-26T15:45:41.447Z,2
2018-07-26T16:01:33.940Z,3
2018-07-26T16:05:05.974Z,3
2018-07-26T16:15:22.072Z,2
2018-07-26T16:25:06.708Z,3
2018-07-26T16:35:06.463Z,3
2018-07-26T16:45:05.863Z,4
2018-07-26T16:55:05.681Z,3
2018-07-26T17:05:05.673Z,4
2018-07-26T17:15:05.883Z,3
2018-07-26T17:25:05.777Z,4
2018-07-26T17:35:05.984Z,3
2018-07-26T17:45:05.853Z,4
2018-07-26T17:55:07.059Z,3
2018-07-26T18:05:05.807Z,4
2018-07-26T18:15:05.697Z,3
2018-07-26T18:25:06.306Z,25
2018-07-26T18:35:05.695Z,42
2018-07-26T18:45:05.765Z,27
2018-07-26T18:55:09.632Z,79
2018-07-26T19:05:05.750Z,32
2018-07-26T19:15:05.859Z,69
2018-07-26T19:25:05.758Z,57
2018-07-26T19:35:05.839Z,16
2018-07-26T19:45:05.840Z,15
2018-07-26T19:55:05.862Z,23
2018-07-26T20:05:05.811Z,15
2018-07-26T20:15:05.763Z,4
2018-07-26T20:25:06.768Z,5
2018-07-26T20:35:06.865Z,4
2018-07-26T20:45:10.278Z,5
2018-07-26T20:55:06.800Z,4
2018-07-26T21:05:05.932Z,4
2018-07-26T21:15:06.944Z,6
2018-07-26T21:25:07.060Z,4
2018-07-26T21:35:05.862Z,4
2018-07-26T21:45:05.981Z,4
2018-07-26T21:55:05.975Z,5
2018-07-26T22:05:05.847Z,5
2018-07-26T22:15:07.592Z,4
2018-07-26T22:25:05.898Z,4
2018-07-26T22:35:06.425Z,4
2018-07-26T22:45:06.777Z,5
2018-07-26T22:55:06.213Z,6
2018-07-26T23:05:21.276Z,4
2018-07-26T23:15:21.984Z,6
2018-07-26T23:25:06.519Z,5
2018-07-26T23:35:05.982Z,4
2018-07-26T23:45:06.924Z,5
2018-07-26T23:55:05.936Z,4
